Terminal Aerodrome Forecast
Issued by NWS

Home | Current Version | Previous Version | Text Only | Print | Product List | Glossary On
Versions: 1 2 3 4 5 6 7 8 9 10 11 12 13 14 15 16
000
FTUS45 KFGZ 020500
TAFSEZ
TAF
KSEZ 020530Z 0206/0306 VRB05KT P6SM FEW120 OVC150
     FM020800 VRB05KT P6SM SCT120 BKN150
     FM021900 VRB06KT P6SM SCT080 SCT120
      TEMPO 0222/0301 VRB15G25KT 5SM TSRA BKN070CB
     FM030230 VRB05KT P6SM SCT080 BKN120=

USA.gov is the U.S. government's official web portal to all federal, state and local government web resources and services.